Sneedville, Tennessee
Current Conditions -  °F | °C
As of 6:35 PM on Saturday 22 Nov 2014 (Local Time) from K0VG Reporting Station
Clear Clear  
Wind Chill: 39°   Ceiling: Unl
Heat Index: 39°   Visibility: 10mi
Dew Point: 28°   Wind: 0mph
Humidity: 65%   Direction: NA
Pressure: 30.25"   Gusts: NA
Location:  36.53°N, 83.22°W
Report Text: K0VG 222335Z AUTO 00000KT 10SM CLR 04/M02 A3025 RMK AO2
Loading
Personal Weather Stations






























Interactive Weather Map New forecast layout! Learn more

10-Day Weather Forecast

Advertisements
Track Severe Weather on mobile